createdAt,value
2022-08-19T00:00:07.624Z,87.25
2022-08-19T00:00:17.699Z,87.35
2022-08-19T00:00:27.927Z,87.35
2022-08-19T00:00:40.359Z,87.45
2022-08-19T00:00:47.600Z,87.45
2022-08-19T00:00:58.069Z,87.55
2022-08-19T00:01:08.007Z,87.55
2022-08-19T00:01:26.283Z,87.55
2022-08-19T00:01:30.605Z,87.55
2022-08-19T00:01:38.280Z,87.55
2022-08-19T00:01:52.784Z,87.45
2022-08-19T00:01:57.353Z,87.35
2022-08-19T00:02:07.371Z,87.35
2022-08-19T00:02:17.829Z,87.45
2022-08-19T00:03:02.080Z,87.25
2022-08-19T00:03:03.800Z,87.25
2022-08-19T00:03:05.416Z,87.25
2022-08-19T00:03:06.447Z,87.25
2022-08-19T00:03:08.413Z,87.25
2022-08-19T00:03:17.618Z,87.25
2022-08-19T00:03:27.942Z,87.35
2022-08-19T00:03:37.472Z,87.45
2022-08-19T00:03:47.543Z,87.45
2022-08-19T00:03:57.697Z,87.45
2022-08-19T00:04:38.692Z,87.85
2022-08-19T00:04:39.932Z,87.85
2022-08-19T00:04:41.803Z,87.85
2022-08-19T00:04:43.843Z,87.85
2022-08-19T00:04:47.736Z,87.85
2022-08-19T00:04:57.813Z,87.76
2022-08-19T00:05:07.768Z,87.55
2022-08-19T00:05:18.660Z,87.55
2022-08-19T00:05:27.383Z,87.55
2022-08-19T00:05:37.786Z,87.55
2022-08-19T00:05:47.812Z,87.25
2022-08-19T00:05:57.354Z,87.15
2022-08-19T00:06:07.684Z,87.25
2022-08-19T00:06:17.866Z,87.35
2022-08-19T00:06:27.617Z,87.45
2022-08-19T00:06:37.922Z,87.55
2022-08-19T00:06:47.377Z,87.65
2022-08-19T00:06:58.060Z,87.65
2022-08-19T00:07:07.341Z,87.55
2022-08-19T00:07:18.473Z,87.45
2022-08-19T00:07:27.628Z,87.45
2022-08-19T00:07:37.463Z,87.45
2022-08-19T00:07:47.453Z,87.45
2022-08-19T00:07:57.623Z,87.45
2022-08-19T00:08:08.837Z,87.55
2022-08-19T00:08:20.037Z,87.55
2022-08-19T00:08:27.475Z,87.55
2022-08-19T00:08:37.685Z,87.55
2022-08-19T00:08:48.248Z,87.45
2022-08-19T00:08:57.931Z,87.35
2022-08-19T00:09:07.638Z,87.45
2022-08-19T00:09:17.821Z,87.45
2022-08-19T00:09:27.646Z,87.35
2022-08-19T00:09:37.722Z,87.25
2022-08-19T00:09:47.752Z,87.25
2022-08-19T00:09:58.380Z,87.25
2022-08-19T00:10:07.823Z,87.25
2022-08-19T00:10:17.632Z,87.25
2022-08-19T00:10:27.889Z,87.15
2022-08-19T00:10:38.439Z,87.25
2022-08-19T00:10:48.415Z,87.35
2022-08-19T00:10:57.982Z,87.45
2022-08-19T00:11:07.638Z,87.45
2022-08-19T00:11:25.654Z,87.35
2022-08-19T00:11:27.865Z,87.35
2022-08-19T00:11:37.865Z,87.35
2022-08-19T00:11:47.700Z,87.45
2022-08-19T00:11:57.756Z,87.65
2022-08-19T00:12:09.489Z,87.76
2022-08-19T00:12:17.729Z,87.76
2022-08-19T00:12:27.906Z,87.76
2022-08-19T00:12:43.908Z,87.65
2022-08-19T00:12:47.980Z,87.65
2022-08-19T00:12:58.752Z,87.55
2022-08-19T00:13:07.674Z,87.45
2022-08-19T00:13:18.016Z,87.45
2022-08-19T00:13:27.838Z,87.45
2022-08-19T00:13:37.710Z,87.45
2022-08-19T00:13:47.771Z,87.45
2022-08-19T00:13:58.702Z,87.45
2022-08-19T00:14:08.723Z,87.55
2022-08-19T00:14:18.179Z,87.55
2022-08-19T00:14:27.371Z,87.55
2022-08-19T00:14:38.431Z,87.45
2022-08-19T00:14:47.950Z,87.55
2022-08-19T00:14:58.980Z,87.55
2022-08-19T00:15:07.712Z,87.65
2022-08-19T00:15:17.694Z,87.76
2022-08-19T00:15:27.730Z,87.96
2022-08-19T00:15:37.529Z,88.06
2022-08-19T00:15:47.869Z,88.06
2022-08-19T00:15:57.569Z,88.06
2022-08-19T00:16:07.709Z,87.85
2022-08-19T00:16:19.553Z,87.76
2022-08-19T00:16:27.713Z,87.85
2022-08-19T00:16:37.707Z,87.85
2022-08-19T00:16:47.392Z,87.76
2022-08-19T00:16:58.010Z,87.76
2022-08-19T00:17:07.710Z,87.76
2022-08-19T00:17:17.714Z,87.65
2022-08-19T00:17:27.561Z,87.65
2022-08-19T00:17:42.081Z,87.65
2022-08-19T00:17:48.545Z,87.85
2022-08-19T00:17:57.389Z,87.96
2022-08-19T00:18:09.823Z,87.96
2022-08-19T00:18:17.487Z,87.96
2022-08-19T00:18:27.884Z,87.96
2022-08-19T00:18:38.207Z,87.96
2022-08-19T00:18:47.469Z,87.96
2022-08-19T00:18:58.614Z,87.96
2022-08-19T00:19:09.666Z,87.96
2022-08-19T00:19:17.931Z,88.06
2022-08-19T00:19:29.086Z,88.06
2022-08-19T00:19:38.622Z,88.16
2022-08-19T00:19:49.666Z,88.26
2022-08-19T00:19:59.579Z,88.46
2022-08-19T00:20:07.528Z,88.46
2022-08-19T00:20:19.419Z,88.26
2022-08-19T00:20:27.402Z,88.16
2022-08-19T00:20:37.535Z,88.16
2022-08-19T00:20:48.201Z,88.16
2022-08-19T00:20:58.454Z,88.16
2022-08-19T00:21:07.465Z,88.16
2022-08-19T00:21:17.751Z,88.06
2022-08-19T00:21:59.602Z,87.85
2022-08-19T00:22:00.892Z,87.96
2022-08-19T00:22:02.093Z,87.96
2022-08-19T00:22:03.523Z,88.06
2022-08-19T00:22:08.474Z,88.06
2022-08-19T00:22:17.493Z,88.16
2022-08-19T00:22:27.416Z,88.26
2022-08-19T00:22:37.523Z,88.26
2022-08-19T00:22:47.785Z,88.36
2022-08-19T00:22:57.675Z,88.46
2022-08-19T00:23:07.425Z,88.46
2022-08-19T00:23:17.377Z,88.46
2022-08-19T00:23:27.560Z,88.46
2022-08-19T00:23:37.844Z,88.36
2022-08-19T00:23:47.639Z,88.36
2022-08-19T00:23:58.852Z,88.26
2022-08-19T00:24:07.372Z,88.16
2022-08-19T00:24:17.663Z,88.06
2022-08-19T00:24:27.838Z,87.96
2022-08-19T00:24:37.609Z,87.96
2022-08-19T00:24:50.752Z,87.96
2022-08-19T00:24:59.231Z,87.96
2022-08-19T00:25:42.752Z,88.36
2022-08-19T00:25:48.903Z,88.36
2022-08-19T00:25:51.601Z,88.36
2022-08-19T00:25:52.256Z,88.36
2022-08-19T00:25:55.411Z,88.36
2022-08-19T00:25:58.159Z,88.26
2022-08-19T00:26:07.445Z,88.20
2022-08-19T00:26:18.334Z,87.96
2022-08-19T00:26:27.829Z,87.96
2022-08-19T00:26:37.907Z,87.96
2022-08-19T00:26:52.580Z,87.96
2022-08-19T00:26:57.744Z,88.06
2022-08-19T00:27:25.827Z,88.36
2022-08-19T00:27:26.088Z,88.26
2022-08-19T00:27:28.036Z,88.36
2022-08-19T00:27:38.404Z,88.46
2022-08-19T00:27:47.491Z,88.46
2022-08-19T00:27:57.470Z,88.46
2022-08-19T00:28:07.342Z,88.56
2022-08-19T00:28:17.558Z,88.66
2022-08-19T00:28:27.664Z,88.66
2022-08-19T00:28:37.788Z,88.76
2022-08-19T00:28:48.554Z,88.76
2022-08-19T00:28:58.421Z,88.86
2022-08-19T00:29:07.707Z,88.76
2022-08-19T00:29:17.929Z,88.56
2022-08-19T00:29:27.472Z,88.46
2022-08-19T00:29:38.280Z,88.36
2022-08-19T00:29:52.550Z,88.36
2022-08-19T00:30:37.165Z,88.66
2022-08-19T00:30:38.280Z,88.66
2022-08-19T00:30:39.296Z,88.66
2022-08-19T00:30:39.775Z,88.66
2022-08-19T00:30:40.315Z,88.66
2022-08-19T00:30:48.846Z,88.56
2022-08-19T00:30:58.268Z,88.46
2022-08-19T00:31:09.086Z,88.26
2022-08-19T00:31:17.691Z,88.16
2022-08-19T00:31:29.011Z,88.26
2022-08-19T00:31:37.868Z,88.46
2022-08-19T00:31:47.946Z,88.66
2022-08-19T00:31:59.713Z,88.76
2022-08-19T00:32:07.415Z,88.86
2022-08-19T00:32:17.362Z,88.86
2022-08-19T00:32:28.073Z,88.86
2022-08-19T00:32:37.791Z,88.86
2022-08-19T00:32:47.727Z,89.11
2022-08-19T00:33:32.056Z,89.06
2022-08-19T00:33:35.471Z,89.06
2022-08-19T00:33:36.645Z,89.06
2022-08-19T00:33:37.204Z,89.06
2022-08-19T00:33:38.529Z,89.06
2022-08-19T00:33:47.695Z,88.96
2022-08-19T00:33:57.976Z,88.96
2022-08-19T00:34:07.791Z,88.86
2022-08-19T00:34:18.130Z,88.81
2022-08-19T00:34:27.956Z,88.66
2022-08-19T00:34:37.905Z,88.70
2022-08-19T00:34:47.380Z,88.60
2022-08-19T00:34:57.780Z,88.60
2022-08-19T00:35:08.382Z,88.60
2022-08-19T00:35:17.887Z,88.46
2022-08-19T00:35:27.921Z,88.40
2022-08-19T00:35:37.668Z,88.40
2022-08-19T00:35:47.348Z,88.30
2022-08-19T00:35:57.846Z,88.30
2022-08-19T00:36:07.654Z,88.30
2022-08-19T00:36:17.455Z,88.36
2022-08-19T00:36:27.667Z,88.50
2022-08-19T00:36:37.730Z,88.50
2022-08-19T00:36:47.662Z,88.56
2022-08-19T00:36:58.054Z,88.60
2022-08-19T00:37:07.420Z,88.60
2022-08-19T00:37:17.566Z,88.50
2022-08-19T00:37:27.527Z,88.40
2022-08-19T00:37:38.042Z,88.30
2022-08-19T00:37:47.755Z,88.30
2022-08-19T00:37:58.069Z,88.30
2022-08-19T00:38:08.502Z,88.30
2022-08-19T00:38:18.264Z,88.40
2022-08-19T00:38:37.787Z,88.40
2022-08-19T00:38:38.263Z,88.40
2022-08-19T00:38:47.487Z,88.60
2022-08-19T00:38:59.413Z,88.60
2022-08-19T00:39:10.597Z,88.70
2022-08-19T00:39:17.713Z,88.81
2022-08-19T00:39:28.887Z,88.81
2022-08-19T00:39:39.139Z,88.90
2022-08-19T00:39:49.234Z,88.90
2022-08-19T00:39:59.568Z,89.01
2022-08-19T00:40:07.420Z,89.11
2022-08-19T00:40:17.699Z,89.11
2022-08-19T00:40:27.916Z,89.21
2022-08-19T00:40:37.565Z,89.21
2022-08-19T00:40:47.572Z,89.31
2022-08-19T00:40:58.528Z,89.31
2022-08-19T00:41:07.639Z,89.41
2022-08-19T00:41:17.667Z,89.41
2022-08-19T00:41:27.428Z,89.41
2022-08-19T00:41:37.758Z,89.31
2022-08-19T00:41:47.968Z,89.21
2022-08-19T00:41:57.394Z,89.11
2022-08-19T00:42:09.037Z,89.11
2022-08-19T00:42:17.935Z,88.90
2022-08-19T00:42:27.627Z,88.90
2022-08-19T00:42:37.445Z,88.81
2022-08-19T00:42:47.530Z,88.70
2022-08-19T00:42:57.812Z,88.60
2022-08-19T00:43:07.710Z,88.60
2022-08-19T00:43:17.859Z,88.60
2022-08-19T00:43:27.898Z,88.60
2022-08-19T00:43:37.744Z,88.50
2022-08-19T00:43:48.998Z,88.50
2022-08-19T00:43:57.522Z,88.60
2022-08-19T00:44:07.439Z,88.70
2022-08-19T00:44:17.426Z,88.70
2022-08-19T00:44:27.629Z,88.81
2022-08-19T00:44:38.803Z,89.01
2022-08-19T00:44:47.700Z,89.21
2022-08-19T00:44:58.418Z,89.41
2022-08-19T00:45:07.880Z,89.41
2022-08-19T00:45:17.689Z,89.41
2022-08-19T00:45:27.499Z,89.41
2022-08-19T00:45:37.669Z,89.31
2022-08-19T00:45:47.659Z,89.21
2022-08-19T00:45:57.735Z,89.11
2022-08-19T00:46:07.755Z,89.11
2022-08-19T00:46:17.487Z,89.11
2022-08-19T00:46:27.553Z,89.11
2022-08-19T00:46:38.006Z,89.01
2022-08-19T00:46:52.531Z,88.70
2022-08-19T00:46:58.137Z,88.50
2022-08-19T00:47:14.163Z,88.50
2022-08-19T00:47:17.745Z,88.50
2022-08-19T00:47:28.051Z,88.50
2022-08-19T00:47:37.375Z,88.60
2022-08-19T00:47:47.711Z,88.81
2022-08-19T00:47:58.544Z,88.81
2022-08-19T00:48:11.788Z,88.90
2022-08-19T00:48:17.876Z,88.90
2022-08-19T00:48:28.186Z,88.90
2022-08-19T00:48:37.364Z,88.90
2022-08-19T00:48:47.645Z,89.01
2022-08-19T00:48:57.809Z,89.01
2022-08-19T00:49:07.649Z,89.11
2022-08-19T00:49:48.731Z,89.01
2022-08-19T00:49:49.194Z,89.01
2022-08-19T00:49:49.346Z,89.01
2022-08-19T00:49:49.847Z,89.01
2022-08-19T00:50:00.239Z,89.11
2022-08-19T00:50:07.731Z,89.11
2022-08-19T00:50:17.826Z,89.11
2022-08-19T00:50:27.731Z,89.01
2022-08-19T00:51:11.975Z,89.11
2022-08-19T00:51:13.115Z,89.11
2022-08-19T00:51:15.689Z,89.11
2022-08-19T00:51:16.241Z,89.11
2022-08-19T00:51:19.538Z,89.11
2022-08-19T00:51:27.633Z,89.31
2022-08-19T00:51:38.561Z,89.71
2022-08-19T00:51:49.078Z,89.81
2022-08-19T00:51:57.893Z,89.91
2022-08-19T00:52:37.136Z,89.91
2022-08-19T00:52:38.208Z,89.91
2022-08-19T00:52:39.758Z,90.01
2022-08-19T00:52:40.843Z,89.91
2022-08-19T00:52:47.966Z,90.01
2022-08-19T00:52:58.313Z,90.01
2022-08-19T00:53:08.381Z,90.01
2022-08-19T00:53:19.055Z,90.01
2022-08-19T00:53:50.211Z,90.01
2022-08-19T00:53:53.794Z,90.01
2022-08-19T00:53:54.431Z,90.01
2022-08-19T00:53:58.192Z,90.01
2022-08-19T00:54:09.869Z,90.01
2022-08-19T00:54:18.236Z,90.01
2022-08-19T00:54:31.178Z,90.01
2022-08-19T00:54:37.592Z,90.01
2022-08-19T00:54:51.972Z,90.01
2022-08-19T00:54:57.879Z,89.91
2022-08-19T00:55:07.475Z,89.91
2022-08-19T00:55:17.777Z,90.11
2022-08-19T00:55:27.914Z,90.22
2022-08-19T00:55:38.310Z,90.22
2022-08-19T00:55:47.708Z,90.22
2022-08-19T00:55:58.113Z,90.11
2022-08-19T00:56:07.587Z,90.01
2022-08-19T00:56:18.297Z,89.91
2022-08-19T00:56:57.439Z,89.51
2022-08-19T00:56:58.487Z,89.41
2022-08-19T00:57:02.348Z,89.41
2022-08-19T00:57:03.450Z,89.41
2022-08-19T00:57:08.404Z,89.41
2022-08-19T00:57:17.441Z,89.41
2022-08-19T00:57:27.709Z,89.31
2022-08-19T00:57:37.384Z,89.31
2022-08-19T00:57:49.926Z,89.51
2022-08-19T00:58:29.317Z,89.61
2022-08-19T00:58:30.844Z,89.61
2022-08-19T00:58:32.612Z,89.51
2022-08-19T00:58:33.394Z,89.51
2022-08-19T00:58:37.825Z,89.41
2022-08-19T00:58:47.671Z,89.31
2022-08-19T00:58:57.483Z,89.31
2022-08-19T00:59:08.476Z,89.31
2022-08-19T00:59:56.446Z,89.31
2022-08-19T01:00:00.880Z,89.41
2022-08-19T01:00:00.880Z,89.31
2022-08-19T01:00:01.155Z,89.41
2022-08-19T01:00:02.645Z,89.51
2022-08-19T01:00:07.480Z,89.61
2022-08-19T01:00:17.661Z,89.71
2022-08-19T01:00:29.036Z,89.81
2022-08-19T01:00:37.713Z,89.81
2022-08-19T01:00:47.998Z,89.91
2022-08-19T01:00:59.144Z,89.91
2022-08-19T01:01:07.581Z,89.91
2022-08-19T01:01:19.450Z,89.91
2022-08-19T01:01:27.977Z,89.81
2022-08-19T01:01:38.332Z,89.81
2022-08-19T01:01:49.289Z,89.71
2022-08-19T01:01:59.506Z,89.61
2022-08-19T01:02:09.008Z,89.41
2022-08-19T01:02:17.373Z,89.31
2022-08-19T01:02:28.375Z,89.31
2022-08-19T01:02:38.841Z,89.31
2022-08-19T01:02:48.491Z,89.61
2022-08-19T01:02:58.870Z,89.91
2022-08-19T01:03:07.829Z,90.11
2022-08-19T01:03:19.255Z,90.11
2022-08-19T01:03:28.581Z,90.26
2022-08-19T01:03:55.188Z,90.11
2022-08-19T01:03:57.794Z,90.11
2022-08-19T01:03:58.710Z,90.11
2022-08-19T01:04:07.605Z,90.01
2022-08-19T01:04:17.765Z,90.11
2022-08-19T01:04:27.788Z,90.11
2022-08-19T01:04:37.484Z,90.01
2022-08-19T01:04:47.398Z,89.81
2022-08-19T01:04:57.669Z,89.61
2022-08-19T01:05:07.707Z,89.51
2022-08-19T01:05:17.626Z,89.51
2022-08-19T01:05:27.360Z,89.61
2022-08-19T01:05:37.634Z,89.71
2022-08-19T01:05:47.919Z,89.71
2022-08-19T01:05:57.338Z,89.81
2022-08-19T01:06:07.362Z,89.81
2022-08-19T01:06:19.801Z,89.81
2022-08-19T01:06:28.339Z,89.81
2022-08-19T01:06:40.049Z,89.75
2022-08-19T01:06:47.519Z,89.71
2022-08-19T01:06:57.373Z,89.71
2022-08-19T01:07:07.458Z,89.61
2022-08-19T01:07:19.734Z,89.61
2022-08-19T01:07:27.899Z,89.55
2022-08-19T01:07:38.160Z,89.45
2022-08-19T01:07:47.693Z,89.55
2022-08-19T01:07:57.483Z,89.61
2022-08-19T01:08:07.769Z,89.75
2022-08-19T01:08:17.655Z,89.86
2022-08-19T01:08:27.877Z,89.95
2022-08-19T01:08:39.159Z,90.06
2022-08-19T01:08:50.368Z,90.06
2022-08-19T01:08:57.475Z,90.16
2022-08-19T01:09:08.358Z,90.06
2022-08-19T01:09:17.790Z,89.95
2022-08-19T01:09:27.893Z,89.95
2022-08-19T01:09:39.219Z,89.86
2022-08-19T01:09:48.857Z,89.86
2022-08-19T01:09:58.615Z,89.86
2022-08-19T01:10:08.288Z,89.86
2022-08-19T01:10:17.448Z,89.86
2022-08-19T01:10:27.656Z,89.75
2022-08-19T01:10:38.219Z,89.75
2022-08-19T01:10:48.358Z,89.75
2022-08-19T01:10:57.807Z,89.75
2022-08-19T01:11:07.731Z,89.81
2022-08-19T01:11:18.048Z,89.75
2022-08-19T01:11:27.646Z,89.86
2022-08-19T01:11:37.587Z,89.86
2022-08-19T01:11:47.702Z,89.86
2022-08-19T01:11:57.734Z,89.95
2022-08-19T01:12:07.784Z,89.95
2022-08-19T01:12:17.918Z,89.95
2022-08-19T01:12:27.435Z,89.86
2022-08-19T01:12:38.750Z,89.75
2022-08-19T01:12:48.203Z,89.86
2022-08-19T01:13:30.040Z,90.26
2022-08-19T01:13:44.537Z,90.16
2022-08-19T01:13:49.530Z,90.26
2022-08-19T01:13:49.847Z,90.16
2022-08-19T01:13:50.763Z,90.16
2022-08-19T01:13:51.862Z,90.16
2022-08-19T01:13:58.430Z,90.16
2022-08-19T01:14:08.770Z,90.06
2022-08-19T01:14:17.409Z,90.16
2022-08-19T01:14:27.690Z,90.16
2022-08-19T01:14:37.557Z,90.16
2022-08-19T01:14:47.690Z,90.06
2022-08-19T01:15:33.209Z,90.26
2022-08-19T01:15:34.383Z,90.26
2022-08-19T01:15:35.448Z,90.26
2022-08-19T01:15:36.528Z,90.26
2022-08-19T01:15:37.772Z,90.26
2022-08-19T01:15:47.564Z,90.26
2022-08-19T01:15:58.531Z,90.26
2022-08-19T01:16:07.583Z,90.36
2022-08-19T01:16:18.369Z,90.36
2022-08-19T01:16:28.217Z,90.36
2022-08-19T01:16:38.347Z,90.26
2022-08-19T01:16:47.357Z,90.16
2022-08-19T01:16:57.945Z,90.16
2022-08-19T01:17:10.602Z,90.16
2022-08-19T01:17:22.011Z,90.26
2022-08-19T01:17:28.135Z,90.16
2022-08-19T01:17:37.838Z,90.06
2022-08-19T01:17:47.606Z,90.06
2022-08-19T01:17:57.489Z,89.95
2022-08-19T01:18:07.896Z,89.95
2022-08-19T01:18:17.464Z,89.95
2022-08-19T01:18:27.559Z,89.95
2022-08-19T01:18:37.496Z,90.06
2022-08-19T01:18:47.651Z,90.06
2022-08-19T01:18:57.876Z,90.06
2022-08-19T01:19:09.984Z,90.16
2022-08-19T01:19:20.005Z,90.16
2022-08-19T01:19:27.555Z,90.16
2022-08-19T01:19:44.239Z,90.16
2022-08-19T01:19:47.630Z,90.16
2022-08-19T01:20:00.308Z,90.16
2022-08-19T01:20:07.527Z,90.26
2022-08-19T01:20:17.880Z,90.26
2022-08-19T01:20:28.608Z,90.36
2022-08-19T01:20:37.447Z,90.46
2022-08-19T01:20:47.577Z,90.56
2022-08-19T01:20:57.435Z,90.56
2022-08-19T01:21:09.088Z,90.56
2022-08-19T01:21:17.627Z,90.56
2022-08-19T01:21:27.335Z,90.56
2022-08-19T01:21:39.773Z,90.56
2022-08-19T01:21:50.017Z,90.46
2022-08-19T01:21:58.346Z,90.46
2022-08-19T01:22:14.162Z,90.36
2022-08-19T01:22:20.180Z,90.36
2022-08-19T01:22:32.896Z,90.36
2022-08-19T01:22:37.467Z,90.36
2022-08-19T01:22:47.453Z,90.46
2022-08-19T01:22:57.803Z,90.56
2022-08-19T01:23:08.064Z,90.46
2022-08-19T01:23:18.625Z,90.46
2022-08-19T01:23:27.669Z,90.46
2022-08-19T01:23:37.574Z,90.36
2022-08-19T01:23:47.823Z,90.36
2022-08-19T01:23:57.926Z,90.36
2022-08-19T01:24:10.062Z,90.36
2022-08-19T01:24:17.631Z,90.26
2022-08-19T01:24:28.877Z,90.26
2022-08-19T01:24:37.734Z,90.16
2022-08-19T01:24:49.627Z,90.16
2022-08-19T01:24:57.859Z,90.16
2022-08-19T01:25:13.559Z,90.06
2022-08-19T01:25:17.492Z,90.06
2022-08-19T01:25:27.604Z,89.95
2022-08-19T01:25:37.519Z,89.95
2022-08-19T01:25:47.563Z,89.95
2022-08-19T01:25:57.883Z,89.95
2022-08-19T01:26:07.830Z,89.95
2022-08-19T01:26:17.531Z,89.95
2022-08-19T01:26:27.741Z,89.95
2022-08-19T01:26:37.797Z,89.95
2022-08-19T01:26:47.433Z,89.95
2022-08-19T01:26:57.833Z,89.95
2022-08-19T01:27:07.483Z,89.95
2022-08-19T01:27:18.372Z,89.86
2022-08-19T01:27:29.499Z,89.75
2022-08-19T01:27:43.151Z,89.65
2022-08-19T01:27:47.766Z,89.65
2022-08-19T01:28:01.651Z,89.75
2022-08-19T01:28:11.093Z,89.86
2022-08-19T01:28:17.720Z,89.86
2022-08-19T01:28:34.078Z,89.86
2022-08-19T01:28:39.813Z,89.86
2022-08-19T01:28:47.824Z,89.95
2022-08-19T01:29:00.923Z,89.95
2022-08-19T01:29:07.698Z,89.86
2022-08-19T01:29:18.280Z,89.86
2022-08-19T01:29:29.708Z,89.86
2022-08-19T01:29:40.096Z,89.86
2022-08-19T01:29:47.819Z,89.75
2022-08-19T01:30:02.145Z,89.75
2022-08-19T01:30:07.419Z,89.86
2022-08-19T01:30:21.342Z,89.86
2022-08-19T01:30:36.160Z,89.95
2022-08-19T01:30:51.330Z,89.95
2022-08-19T01:30:54.323Z,90.06
2022-08-19T01:30:58.560Z,90.06
2022-08-19T01:31:08.432Z,90.06
2022-08-19T01:31:26.812Z,90.06
2022-08-19T01:31:28.955Z,90.20
2022-08-19T01:31:41.076Z,90.16
2022-08-19T01:31:50.228Z,90.16
2022-08-19T01:31:58.376Z,90.26
2022-08-19T01:32:09.472Z,90.26
2022-08-19T01:32:33.209Z,90.26
2022-08-19T01:32:34.022Z,90.26
2022-08-19T01:32:43.146Z,90.36
2022-08-19T01:32:49.269Z,90.36
2022-08-19T01:33:04.779Z,90.36
2022-08-19T01:33:13.038Z,90.46
2022-08-19T01:33:18.871Z,90.46
2022-08-19T01:36:42.208Z,91.47
2022-08-19T01:36:44.801Z,91.47
2022-08-19T01:36:51.742Z,91.47
2022-08-19T01:36:58.095Z,91.51
2022-08-19T01:37:06.390Z,91.47
2022-08-19T01:37:09.127Z,91.57
2022-08-19T01:37:11.340Z,91.61
2022-08-19T01:37:27.003Z,91.61
2022-08-19T01:37:27.224Z,91.61
2022-08-19T01:37:36.369Z,91.57
2022-08-19T01:37:41.470Z,91.61
2022-08-19T01:37:42.520Z,91.71
2022-08-19T01:37:52.070Z,91.82
2022-08-19T01:38:02.023Z,91.97
2022-08-19T01:38:12.440Z,92.07
2022-08-19T01:42:30.800Z,90.91
2022-08-19T01:42:31.301Z,90.91
2022-08-19T01:42:36.399Z,91.01
2022-08-19T01:42:37.121Z,90.91
2022-08-19T01:42:37.518Z,90.91
2022-08-19T01:42:37.722Z,90.91
2022-08-19T01:42:40.236Z,90.91
2022-08-19T01:43:36.550Z,91.31
2022-08-19T01:44:13.247Z,91.41
2022-08-19T01:44:13.608Z,91.41
2022-08-19T01:44:13.665Z,91.41
2022-08-19T01:44:13.964Z,91.31
2022-08-19T01:44:17.884Z,91.41
2022-08-19T01:44:18.575Z,91.41
2022-08-19T01:44:19.131Z,91.51
2022-08-19T01:44:20.316Z,91.51
2022-08-19T01:44:20.564Z,91.51
2022-08-19T01:45:14.435Z,91.71
2022-08-19T01:45:21.748Z,91.71
2022-08-19T01:45:23.058Z,91.71
2022-08-19T01:45:24.267Z,91.71
2022-08-19T01:45:24.983Z,91.71
2022-08-19T01:45:26.621Z,91.71
2022-08-19T01:45:33.419Z,91.71
2022-08-19T01:45:40.175Z,91.82
2022-08-19T01:45:50.498Z,91.71
2022-08-19T01:46:35.754Z,91.82
2022-08-19T01:46:51.025Z,91.82
2022-08-19T01:46:54.271Z,91.71
2022-08-19T01:46:55.070Z,91.71
2022-08-19T01:46:55.214Z,91.71
2022-08-19T01:46:55.380Z,91.71
2022-08-19T01:47:00.083Z,91.61
2022-08-19T01:47:10.259Z,91.51
2022-08-19T01:47:21.214Z,91.31
2022-08-19T01:47:30.685Z,91.21
2022-08-19T01:47:43.006Z,91.21
2022-08-19T01:47:59.094Z,91.21
2022-08-19T01:48:01.747Z,91.41
2022-08-19T01:48:11.371Z,91.61
2022-08-19T01:48:56.092Z,92.02
2022-08-19T01:48:56.273Z,92.02
2022-08-19T01:48:56.457Z,92.12
2022-08-19T01:48:56.617Z,92.02
2022-08-19T01:49:03.296Z,92.02
2022-08-19T01:49:47.121Z,91.82
2022-08-19T01:49:47.882Z,91.82
2022-08-19T01:49:49.079Z,91.82
2022-08-19T01:49:50.438Z,91.82
2022-08-19T01:49:52.980Z,91.82
2022-08-19T01:50:00.563Z,91.57
2022-08-19T01:50:15.262Z,91.51
2022-08-19T01:50:20.197Z,91.31
2022-08-19T01:50:35.206Z,91.31
2022-08-19T01:50:40.259Z,91.21
2022-08-19T01:50:50.079Z,91.11
2022-08-19T01:51:00.157Z,91.11
2022-08-19T01:51:10.082Z,91.11
2022-08-19T01:51:20.139Z,91.11
2022-08-19T01:51:30.085Z,91.21
2022-08-19T01:51:41.259Z,91.31
2022-08-19T01:51:50.223Z,91.41
2022-08-19T01:52:00.170Z,91.41
2022-08-19T01:52:10.146Z,91.41
2022-08-19T01:52:20.105Z,91.41
2022-08-19T01:52:30.164Z,91.51
2022-08-19T01:52:40.068Z,91.61
2022-08-19T01:52:50.098Z,91.71
2022-08-19T01:53:06.345Z,91.71
2022-08-19T01:53:10.096Z,91.61
2022-08-19T01:53:20.120Z,91.51
2022-08-19T01:53:33.648Z,91.51
2022-08-19T01:53:40.132Z,91.51
2022-08-19T01:53:50.066Z,91.41
2022-08-19T01:54:00.114Z,91.31
2022-08-19T01:54:10.092Z,91.31
2022-08-19T01:54:23.450Z,91.31
2022-08-19T01:54:30.108Z,91.31
2022-08-19T01:54:40.103Z,91.31
2022-08-19T01:54:50.111Z,91.17
2022-08-19T01:55:01.941Z,91.21
2022-08-19T01:55:10.168Z,91.21
2022-08-19T01:55:20.229Z,91.21
2022-08-19T01:55:30.179Z,91.21
2022-08-19T01:55:41.169Z,91.21
2022-08-19T01:55:50.164Z,91.11
2022-08-19T01:56:00.223Z,91.11
2022-08-19T01:56:10.541Z,91.11
2022-08-19T01:56:20.711Z,91.11
2022-08-19T01:56:30.147Z,91.11
2022-08-19T01:56:40.107Z,91.21
2022-08-19T01:56:50.147Z,91.21
2022-08-19T01:57:00.385Z,91.21
2022-08-19T01:57:10.157Z,91.31
2022-08-19T01:57:20.728Z,91.41
2022-08-19T01:57:30.273Z,91.61
2022-08-19T01:57:40.222Z,91.71
2022-08-19T01:57:50.287Z,91.82
2022-08-19T01:58:00.159Z,91.91
2022-08-19T01:58:48.098Z,91.82
2022-08-19T01:58:49.279Z,91.82
2022-08-19T01:58:49.488Z,91.82
2022-08-19T01:58:50.651Z,91.82
2022-08-19T01:58:53.717Z,91.82
2022-08-19T01:59:47.224Z,91.91
2022-08-19T01:59:50.512Z,92.02
2022-08-19T01:59:54.469Z,92.02
2022-08-19T01:59:54.808Z,92.02
2022-08-19T01:59:54.964Z,92.02
2022-08-19T01:59:55.147Z,92.02
2022-08-19T02:00:02.050Z,92.02
2022-08-19T02:00:10.567Z,92.02
2022-08-19T02:00:20.079Z,91.91
2022-08-19T02:00:30.223Z,91.82
2022-08-19T02:00:40.086Z,91.82
2022-08-19T02:00:50.352Z,91.71
2022-08-19T02:01:00.165Z,91.71
2022-08-19T02:01:10.236Z,91.71
2022-08-19T02:01:20.525Z,91.71
2022-08-19T02:01:31.382Z,91.71
2022-08-19T02:01:40.183Z,91.71
2022-08-19T02:01:50.407Z,91.71
2022-08-19T02:02:11.653Z,91.61
2022-08-19T02:02:11.949Z,91.82
2022-08-19T02:02:20.146Z,91.82
2022-08-19T02:02:31.906Z,91.82
2022-08-19T02:02:52.940Z,91.82
2022-08-19T02:02:53.858Z,91.82
2022-08-19T02:03:00.216Z,91.91
2022-08-19T02:03:57.247Z,92.12
2022-08-19T02:03:58.313Z,92.22
2022-08-19T02:03:58.495Z,92.22
2022-08-19T02:04:02.274Z,92.22
2022-08-19T02:04:02.520Z,92.32
2022-08-19T02:04:02.954Z,92.22
2022-08-19T02:04:10.797Z,92.32
2022-08-19T02:04:20.118Z,92.42
2022-08-19T02:04:30.126Z,92.42
2022-08-19T02:04:40.156Z,92.42
2022-08-19T02:05:30.904Z,92.72
2022-08-19T02:05:31.096Z,92.72
2022-08-19T02:05:31.411Z,92.72
2022-08-19T02:05:31.742Z,92.72
2022-08-19T02:05:33.071Z,92.72
2022-08-19T02:05:40.245Z,92.72
2022-08-19T02:05:50.277Z,92.93
2022-08-19T02:06:00.186Z,92.93
2022-08-19T02:06:10.140Z,93.02
2022-08-19T02:06:20.100Z,93.13
2022-08-19T02:06:30.767Z,93.13
2022-08-19T02:06:41.631Z,93.13
2022-08-19T02:06:50.296Z,93.13
2022-08-19T02:07:29.144Z,92.72
2022-08-19T02:07:30.422Z,92.72
2022-08-19T02:07:30.650Z,92.72
2022-08-19T02:07:31.433Z,92.72
2022-08-19T02:07:40.154Z,92.52
2022-08-19T02:07:50.109Z,92.22
2022-08-19T02:08:14.309Z,92.12
2022-08-19T02:08:15.422Z,92.12
2022-08-19T02:08:20.610Z,92.12
2022-08-19T02:08:30.160Z,92.12
2022-08-19T02:08:41.059Z,92.22
2022-08-19T02:08:52.732Z,92.12
2022-08-19T02:09:01.017Z,92.12
2022-08-19T02:09:53.427Z,92.22
2022-08-19T02:09:54.213Z,92.32
2022-08-19T02:10:03.718Z,92.36
2022-08-19T02:10:09.016Z,92.42
2022-08-19T02:10:13.385Z,92.42
2022-08-19T02:10:16.817Z,92.42
2022-08-19T02:10:20.950Z,92.42
2022-08-19T02:10:21.739Z,92.52
2022-08-19T02:10:30.215Z,92.52
2022-08-19T02:10:40.763Z,92.52
2022-08-19T02:10:57.509Z,92.52
2022-08-19T02:11:02.108Z,92.52
2022-08-19T02:11:10.298Z,92.42
2022-08-19T02:12:01.703Z,92.22
2022-08-19T02:12:07.723Z,92.12
2022-08-19T02:12:07.968Z,92.12
2022-08-19T02:12:09.212Z,92.12
2022-08-19T02:12:09.340Z,92.02
2022-08-19T02:12:12.511Z,92.02
2022-08-19T02:12:20.910Z,92.02
2022-08-19T02:12:43.299Z,92.16
2022-08-19T02:12:43.753Z,92.22
2022-08-19T02:12:50.142Z,92.22
2022-08-19T02:13:13.879Z,92.26
2022-08-19T02:13:14.335Z,92.22
2022-08-19T02:13:21.068Z,92.22
2022-08-19T02:13:30.194Z,92.22
2022-08-19T02:13:40.167Z,92.12
2022-08-19T02:13:51.509Z,92.22
2022-08-19T02:14:01.198Z,92.12
2022-08-19T02:14:17.912Z,92.16
2022-08-19T02:14:21.031Z,92.42
2022-08-19T02:15:48.167Z,92.77